WJA406 CYVR-CYLW
Flight info
| Callsign | WJA406 |
|---|---|
| Flight time | 0h 36m |
| Altitude | 27000 |
| Route | JANEK DCT SEKAB SEKAB5 |
| Aircraft | B38M/M-SDE1FGHILORVWXY/HB1 |
Departure
| Time | 2026-05-04 23:56 |
|---|---|
| Airport | Vancouver International Airport (CYVR) |
Arrival
| Time | 2026-05-05 00:32 |
|---|---|
| Airport | Kelowna International Airport (CYLW) |
| Time | Latitude | Longitude | Altitude | Speed | Heading |
|---|---|---|---|---|---|
| 2026-05-04 23:43 | 49.19185 | -123.18151 | 12 ft | 0 kts | 11° |
| 2026-05-04 23:49 | 49.19174 | -123.18154 | 12 ft | 4 kts | 15° |
| 2026-05-04 23:49 | 49.19148 | -123.18168 | 13 ft | 4 kts | 29° |
| 2026-05-04 23:49 | 49.19127 | -123.18193 | 13 ft | 4 kts | 51° |
| 2026-05-04 23:50 | 49.19118 | -123.18226 | 12 ft | 3 kts | 97° |
| 2026-05-04 23:50 | 49.19119 | -123.18231 | 12 ft | 0 kts | 101° |
| 2026-05-04 23:52 | 49.19119 | -123.18230 | 12 ft | 1 kts | 101° |
| 2026-05-04 23:52 | 49.19112 | -123.18168 | 12 ft | 12 kts | 99° |
| 2026-05-04 23:53 | 49.19067 | -123.18041 | 12 ft | 11 kts | 159° |
| 2026-05-04 23:53 | 49.18956 | -123.18067 | 13 ft | 19 kts | 191° |
| 2026-05-04 23:53 | 49.18895 | -123.17915 | 12 ft | 24 kts | 96° |
| 2026-05-04 23:53 | 49.18864 | -123.17643 | 12 ft | 27 kts | 99° |
| 2026-05-04 23:54 | 49.18827 | -123.17320 | 12 ft | 29 kts | 98° |
| 2026-05-04 23:54 | 49.18789 | -123.16975 | 14 ft | 32 kts | 99° |
| 2026-05-04 23:54 | 49.18761 | -123.16733 | 13 ft | 19 kts | 99° |
| 2026-05-04 23:54 | 49.18735 | -123.16497 | 12 ft | 26 kts | 101° |
| 2026-05-04 23:55 | 49.18680 | -123.16261 | 12 ft | 20 kts | 134° |
| 2026-05-04 23:55 | 49.18553 | -123.16204 | 13 ft | 22 kts | 193° |
| 2026-05-04 23:55 | 49.18507 | -123.16381 | 14 ft | 30 kts | 279° |
| 2026-05-04 23:56 | 49.18595 | -123.17147 | 13 ft | 115 kts | 279° |
| 2026-05-04 23:56 | 49.18705 | -123.18129 | 19 ft | 161 kts | 279° |
| 2026-05-04 23:56 | 49.18955 | -123.20671 | 719 ft | 204 kts | 277° |
| 2026-05-04 23:56 | 49.19094 | -123.22178 | 1204 ft | 217 kts | 277° |
| 2026-05-04 23:57 | 49.19396 | -123.25260 | 2405 ft | 231 kts | 278° |
| 2026-05-04 23:57 | 49.19561 | -123.26935 | 2942 ft | 239 kts | 278° |
| 2026-05-04 23:57 | 49.19808 | -123.29426 | 4085 ft | 240 kts | 279° |
| 2026-05-04 23:57 | 49.20428 | -123.31853 | 4810 ft | 257 kts | 309° |
| 2026-05-04 23:58 | 49.21917 | -123.33372 | 5719 ft | 265 kts | 345° |
| 2026-05-04 23:58 | 49.23766 | -123.33430 | 6684 ft | 271 kts | 12° |
| 2026-05-04 23:58 | 49.25437 | -123.32176 | 7637 ft | 277 kts | 41° |
| 2026-05-04 23:58 | 49.26608 | -123.29809 | 8623 ft | 281 kts | 54° |
| 2026-05-04 23:59 | 49.27822 | -123.27430 | 9573 ft | 285 kts | 49° |
| 2026-05-04 23:59 | 49.29078 | -123.25062 | 10440 ft | 291 kts | 49° |
| 2026-05-04 23:59 | 49.30400 | -123.22573 | 10927 ft | 310 kts | 49° |
| 2026-05-04 23:59 | 49.31813 | -123.19927 | 11328 ft | 330 kts | 49° |
| 2026-05-05 00:00 | 49.33297 | -123.17136 | 11877 ft | 343 kts | 49° |
| 2026-05-05 00:00 | 49.34298 | -123.15242 | 12367 ft | 346 kts | 49° |
| 2026-05-05 00:00 | 49.36304 | -123.11375 | 13525 ft | 349 kts | 49° |
| 2026-05-05 00:00 | 49.37819 | -123.08429 | 14192 ft | 354 kts | 49° |
| 2026-05-05 00:01 | 49.39347 | -123.05450 | 14901 ft | 356 kts | 49° |
| 2026-05-05 00:01 | 49.40881 | -123.02439 | 15602 ft | 359 kts | 49° |
| 2026-05-05 00:01 | 49.42412 | -122.99436 | 16134 ft | 363 kts | 49° |
| 2026-05-05 00:01 | 49.43961 | -122.96379 | 16891 ft | 364 kts | 49° |
| 2026-05-05 00:02 | 49.45530 | -122.93284 | 17453 ft | 370 kts | 48° |
| 2026-05-05 00:02 | 49.47119 | -122.90154 | 18169 ft | 372 kts | 48° |
| 2026-05-05 00:02 | 49.48718 | -122.86989 | 18736 ft | 376 kts | 48° |
| 2026-05-05 00:02 | 49.50329 | -122.83802 | 19350 ft | 378 kts | 48° |
| 2026-05-05 00:03 | 49.51949 | -122.80589 | 19884 ft | 382 kts | 48° |
| 2026-05-05 00:03 | 49.53587 | -122.77340 | 20397 ft | 385 kts | 47° |
| 2026-05-05 00:03 | 49.55222 | -122.74083 | 21003 ft | 386 kts | 48° |
| 2026-05-05 00:03 | 49.56874 | -122.70794 | 21489 ft | 389 kts | 47° |
| 2026-05-05 00:04 | 49.58530 | -122.67488 | 22089 ft | 391 kts | 46° |
| 2026-05-05 00:04 | 49.60203 | -122.64147 | 22585 ft | 395 kts | 47° |
| 2026-05-05 00:04 | 49.61896 | -122.60762 | 22844 ft | 401 kts | 47° |
| 2026-05-05 00:04 | 49.63623 | -122.57307 | 22869 ft | 412 kts | 47° |
| 2026-05-05 00:05 | 49.65389 | -122.53763 | 22858 ft | 419 kts | 47° |
| 2026-05-05 00:05 | 49.67175 | -122.50180 | 22875 ft | 421 kts | 46° |
| 2026-05-05 00:05 | 49.69023 | -122.46685 | 22873 ft | 421 kts | 46° |
| 2026-05-05 00:05 | 49.70856 | -122.43223 | 22884 ft | 421 kts | 46° |
| 2026-05-05 00:06 | 49.72705 | -122.39712 | 22844 ft | 422 kts | 46° |
| 2026-05-05 00:06 | 49.74563 | -122.36177 | 22886 ft | 423 kts | 46° |
| 2026-05-05 00:06 | 49.76412 | -122.32651 | 22873 ft | 423 kts | 46° |
| 2026-05-05 00:06 | 49.78266 | -122.29112 | 22891 ft | 422 kts | 46° |
| 2026-05-05 00:07 | 49.80111 | -122.25583 | 22845 ft | 422 kts | 46° |
| 2026-05-05 00:07 | 49.81957 | -122.22050 | 22829 ft | 421 kts | 46° |
| 2026-05-05 00:07 | 49.83794 | -122.18532 | 22792 ft | 420 kts | 46° |
| 2026-05-05 00:07 | 49.85631 | -122.15012 | 22838 ft | 418 kts | 46° |
| 2026-05-05 00:08 | 49.87461 | -122.11488 | 22907 ft | 420 kts | 46° |
| 2026-05-05 00:08 | 49.89292 | -122.07961 | 22781 ft | 420 kts | 46° |
| 2026-05-05 00:08 | 49.91126 | -122.04426 | 22884 ft | 421 kts | 46° |
| 2026-05-05 00:08 | 49.92951 | -122.00902 | 22863 ft | 419 kts | 46° |
| 2026-05-05 00:09 | 49.94778 | -121.97372 | 22854 ft | 419 kts | 46° |
| 2026-05-05 00:09 | 49.96599 | -121.93848 | 22814 ft | 419 kts | 46° |
| 2026-05-05 00:09 | 49.98428 | -121.90305 | 22893 ft | 420 kts | 46° |
| 2026-05-05 00:09 | 50.00260 | -121.86751 | 22834 ft | 421 kts | 46° |
| 2026-05-05 00:10 | 50.02086 | -121.83202 | 22872 ft | 420 kts | 46° |
| 2026-05-05 00:10 | 50.03912 | -121.79651 | 22822 ft | 421 kts | 46° |
| 2026-05-05 00:10 | 50.05742 | -121.76087 | 22854 ft | 421 kts | 46° |
| 2026-05-05 00:10 | 50.07427 | -121.72346 | 22861 ft | 427 kts | 57° |
| 2026-05-05 00:11 | 50.08450 | -121.68020 | 22863 ft | 438 kts | 72° |
| 2026-05-05 00:11 | 50.08739 | -121.63247 | 22824 ft | 448 kts | 83° |
| 2026-05-05 00:11 | 50.08778 | -121.58389 | 22802 ft | 450 kts | 83° |
| 2026-05-05 00:11 | 50.08799 | -121.53505 | 22894 ft | 451 kts | 83° |
| 2026-05-05 00:12 | 50.08804 | -121.48632 | 22863 ft | 450 kts | 84° |
| 2026-05-05 00:12 | 50.08800 | -121.43753 | 22843 ft | 449 kts | 84° |
| 2026-05-05 00:12 | 50.08793 | -121.38902 | 22849 ft | 449 kts | 84° |
| 2026-05-05 00:12 | 50.08784 | -121.34021 | 22849 ft | 450 kts | 84° |
| 2026-05-05 00:13 | 50.08773 | -121.29146 | 22835 ft | 450 kts | 84° |
| 2026-05-05 00:13 | 50.08759 | -121.24285 | 22847 ft | 449 kts | 84° |
| 2026-05-05 00:13 | 50.08742 | -121.19479 | 22854 ft | 434 kts | 84° |
| 2026-05-05 00:13 | 50.08726 | -121.14826 | 22411 ft | 427 kts | 84° |
| 2026-05-05 00:14 | 50.08707 | -121.10211 | 21809 ft | 426 kts | 84° |
| 2026-05-05 00:14 | 50.08687 | -121.05613 | 21271 ft | 423 kts | 85° |
| 2026-05-05 00:14 | 50.08666 | -121.01111 | 20734 ft | 420 kts | 85° |
| 2026-05-05 00:14 | 50.08642 | -120.96577 | 20219 ft | 417 kts | 85° |
| 2026-05-05 00:15 | 50.08617 | -120.92076 | 19679 ft | 414 kts | 85° |
| 2026-05-05 00:15 | 50.08590 | -120.87599 | 19167 ft | 412 kts | 86° |
| 2026-05-05 00:15 | 50.08562 | -120.83147 | 18656 ft | 410 kts | 86° |
| 2026-05-05 00:15 | 50.08534 | -120.78714 | 18137 ft | 409 kts | 86° |
| 2026-05-05 00:16 | 50.08502 | -120.74270 | 17467 ft | 410 kts | 86° |
| 2026-05-05 00:16 | 50.08468 | -120.69846 | 17010 ft | 406 kts | 86° |
| 2026-05-05 00:16 | 50.08434 | -120.65526 | 16632 ft | 391 kts | 86° |
| 2026-05-05 00:16 | 50.08400 | -120.61344 | 16179 ft | 385 kts | 87° |
| 2026-05-05 00:17 | 50.08364 | -120.57184 | 15713 ft | 384 kts | 87° |
| 2026-05-05 00:17 | 50.08327 | -120.53038 | 15259 ft | 382 kts | 87° |
| 2026-05-05 00:17 | 50.08289 | -120.48912 | 14813 ft | 380 kts | 87° |
| 2026-05-05 00:17 | 50.08249 | -120.44802 | 14361 ft | 379 kts | 88° |
| 2026-05-05 00:18 | 50.08208 | -120.40690 | 13919 ft | 378 kts | 88° |
| 2026-05-05 00:18 | 50.08166 | -120.36607 | 13433 ft | 377 kts | 88° |
| 2026-05-05 00:18 | 50.08122 | -120.32534 | 12966 ft | 374 kts | 88° |
| 2026-05-05 00:18 | 50.08077 | -120.28495 | 12520 ft | 372 kts | 88° |
| 2026-05-05 00:19 | 50.08032 | -120.24529 | 12086 ft | 369 kts | 88° |
| 2026-05-05 00:19 | 50.07985 | -120.20563 | 11652 ft | 360 kts | 89° |
| 2026-05-05 00:19 | 50.07939 | -120.16754 | 11377 ft | 342 kts | 88° |
| 2026-05-05 00:19 | 50.07893 | -120.13152 | 11216 ft | 323 kts | 88° |
| 2026-05-05 00:20 | 50.07850 | -120.09750 | 11074 ft | 306 kts | 88° |
| 2026-05-05 00:20 | 50.07808 | -120.06518 | 10925 ft | 290 kts | 88° |
| 2026-05-05 00:20 | 50.07768 | -120.03455 | 10782 ft | 276 kts | 88° |
| 2026-05-05 00:20 | 50.07729 | -120.00535 | 10645 ft | 264 kts | 88° |
| 2026-05-05 00:21 | 50.07691 | -119.97753 | 10512 ft | 251 kts | 88° |
| 2026-05-05 00:21 | 50.07653 | -119.95053 | 10384 ft | 250 kts | 88° |
| 2026-05-05 00:21 | 50.07615 | -119.92347 | 10108 ft | 251 kts | 88° |
| 2026-05-05 00:21 | 50.07577 | -119.89627 | 9990 ft | 252 kts | 88° |
| 2026-05-05 00:22 | 50.07536 | -119.86892 | 9957 ft | 252 kts | 88° |
| 2026-05-05 00:22 | 50.07495 | -119.84159 | 9626 ft | 254 kts | 88° |
| 2026-05-05 00:22 | 50.07453 | -119.81462 | 9368 ft | 252 kts | 88° |
| 2026-05-05 00:22 | 50.07412 | -119.78740 | 9072 ft | 251 kts | 88° |
| 2026-05-05 00:23 | 50.07357 | -119.76025 | 8986 ft | 251 kts | 92° |
| 2026-05-05 00:23 | 50.06795 | -119.73464 | 8969 ft | 254 kts | 123° |
| 2026-05-05 00:23 | 50.05488 | -119.71610 | 8979 ft | 258 kts | 152° |
| 2026-05-05 00:23 | 50.03796 | -119.70705 | 9000 ft | 258 kts | 165° |
| 2026-05-05 00:24 | 50.02066 | -119.69986 | 8866 ft | 256 kts | 165° |
| 2026-05-05 00:24 | 50.00333 | -119.69275 | 8797 ft | 258 kts | 165° |
| 2026-05-05 00:24 | 49.98594 | -119.68572 | 8706 ft | 259 kts | 165° |
| 2026-05-05 00:24 | 49.96850 | -119.67875 | 8616 ft | 258 kts | 166° |
| 2026-05-05 00:25 | 49.95088 | -119.67365 | 8498 ft | 257 kts | 172° |
| 2026-05-05 00:25 | 49.93316 | -119.66930 | 8333 ft | 258 kts | 171° |
| 2026-05-05 00:25 | 49.91545 | -119.66483 | 8216 ft | 257 kts | 171° |
| 2026-05-05 00:25 | 49.89788 | -119.66033 | 8050 ft | 256 kts | 171° |
| 2026-05-05 00:26 | 49.88028 | -119.65584 | 7936 ft | 257 kts | 171° |
| 2026-05-05 00:26 | 49.86261 | -119.65144 | 7647 ft | 256 kts | 171° |
| 2026-05-05 00:26 | 49.84508 | -119.64709 | 7343 ft | 254 kts | 171° |
| 2026-05-05 00:26 | 49.82767 | -119.64258 | 7030 ft | 254 kts | 167° |
| 2026-05-05 00:27 | 49.81135 | -119.63368 | 6707 ft | 250 kts | 149° |
| 2026-05-05 00:27 | 49.79804 | -119.61728 | 6383 ft | 241 kts | 126° |
| 2026-05-05 00:27 | 49.78963 | -119.59518 | 6128 ft | 238 kts | 106° |
| 2026-05-05 00:27 | 49.78641 | -119.57036 | 5855 ft | 234 kts | 88° |
| 2026-05-05 00:28 | 49.78837 | -119.54568 | 5579 ft | 229 kts | 69° |
| 2026-05-05 00:28 | 49.79484 | -119.52366 | 5290 ft | 224 kts | 53° |
| 2026-05-05 00:28 | 49.80512 | -119.50565 | 5031 ft | 224 kts | 41° |
| 2026-05-05 00:28 | 49.81648 | -119.48879 | 4721 ft | 228 kts | 42° |
| 2026-05-05 00:29 | 49.82778 | -119.47128 | 4419 ft | 232 kts | 48° |
| 2026-05-05 00:29 | 49.83696 | -119.45071 | 4144 ft | 232 kts | 59° |
| 2026-05-05 00:29 | 49.84306 | -119.42749 | 3752 ft | 233 kts | 66° |
| 2026-05-05 00:29 | 49.85000 | -119.40553 | 3390 ft | 222 kts | 54° |
| 2026-05-05 00:30 | 49.85936 | -119.38727 | 3031 ft | 212 kts | 40° |
| 2026-05-05 00:30 | 49.87049 | -119.37457 | 2855 ft | 184 kts | 26° |
| 2026-05-05 00:30 | 49.88156 | -119.36828 | 2668 ft | 157 kts | 6° |
| 2026-05-05 00:30 | 49.89156 | -119.36839 | 2541 ft | 137 kts | 353° |
| 2026-05-05 00:31 | 49.90099 | -119.37010 | 2356 ft | 138 kts | 354° |
| 2026-05-05 00:31 | 49.91068 | -119.37147 | 2189 ft | 137 kts | 354° |
| 2026-05-05 00:31 | 49.91989 | -119.37272 | 1964 ft | 134 kts | 355° |
| 2026-05-05 00:31 | 49.92924 | -119.37405 | 1790 ft | 132 kts | 353° |
| 2026-05-05 00:32 | 49.93825 | -119.37538 | 1626 ft | 133 kts | 354° |
| 2026-05-05 00:32 | 49.94743 | -119.37657 | 1418 ft | 130 kts | 353° |
| 2026-05-05 00:32 | 49.95541 | -119.37771 | 1404 ft | 87 kts | 354° |
| 2026-05-05 00:32 | 49.95795 | -119.37852 | 1413 ft | 10 kts | 291° |
| 2026-05-05 00:33 | 49.95791 | -119.37918 | 1410 ft | 0 kts | 247° |
| 2026-05-05 00:33 | 49.95778 | -119.37937 | 1410 ft | 8 kts | 210° |
| 2026-05-05 00:34 | 49.95738 | -119.37943 | 1415 ft | 12 kts | 164° |
| 2026-05-05 00:34 | 49.95639 | -119.37922 | 1413 ft | 20 kts | 176° |
| 2026-05-05 00:34 | 49.95506 | -119.37905 | 1409 ft | 21 kts | 175° |
| 2026-05-05 00:34 | 49.95361 | -119.37885 | 1406 ft | 21 kts | 174° |
| 2026-05-05 00:35 | 49.95194 | -119.37861 | 1398 ft | 15 kts | 174° |
| 2026-05-05 00:35 | 49.95148 | -119.37895 | 1393 ft | 9 kts | 254° |
| 2026-05-05 00:35 | 49.95110 | -119.37921 | 1397 ft | 10 kts | 163° |
| 2026-05-05 00:35 | 49.95041 | -119.37911 | 1387 ft | 7 kts | 218° |
| 2026-05-05 00:36 | 49.95037 | -119.37952 | 1391 ft | 5 kts | 306° |
| 2026-05-05 00:36 | 49.95049 | -119.37983 | 1403 ft | 0 kts | 298° |